SBGL/GIG METAR and TAF weather

Enter ICAO airport designator
Station Type Date Time Source
SBGL METAR 2020/10/20 17:00 UTC NOAA

SBGL 201700Z 33004KT 9999 FEW030 32/17 Q1013


Station Type Date Time Source
SBGL Decoded METAR 2020/10/20 17:00 UTC NOAA

Galeao, Brazil (SBGL) 22-49S 043-15W 42M
Oct 20, 2020 - 01:00 PM EDT / 2020.10.20 1700 UTC
Wind: from the NNW (330 degrees) at 5 MPH (4 KT):0
Visibility: greater than 7 mile(s):0
Sky conditions: mostly clear
Temperature: 89 F (32 C)
Dew Point: 62 F (17 C)
Relative Humidity: 40%
Pressure (altimeter): 29.91 in. Hg (1013 hPa)
ob: SBGL 201700Z 33004KT 9999 FEW030 32/17 Q1013
cycle: 17

Station Type Date Time Source
SBGL TAF 2020/10/20 18:09 UTC NOAA

TAF SBGL 201515Z 2018/2124 14013KT 9999 SCT025 TX31/2018Z TN21/2108Z PROB40 2018/2021 8000 SCT020 FEW030TCU
BECMG 2023/2101 11010KT FEW020
BECMG 2106/2108 03005KT
BECMG 2109/2110 36005KT SCT016
BECMG 2114/2116 16015KT FEW030
BECMG 2120/2121 13010KT SCT030
RMK PGB

Example: see airport list